sensor_id;sensor_type;location;lat;lon;timestamp;pressure;altitude;pressure_sealevel;temperature;humidity
4598;BME280;62772;48.646;8.906;2022-11-15T00:02:23;96087.34;;;6.32;100.00
4598;BME280;62772;48.646;8.906;2022-11-15T00:07:43;96069.72;;;6.23;100.00
4598;BME280;62772;48.646;8.906;2022-11-15T00:13:07;96074.38;;;6.12;100.00
4598;BME280;62772;48.646;8.906;2022-11-15T00:18:27;96069.44;;;6.05;100.00
4598;BME280;62772;48.646;8.906;2022-11-15T00:23:46;96080.97;;;5.71;100.00
4598;BME280;62772;48.646;8.906;2022-11-15T00:29:08;96079.78;;;5.34;100.00
4598;BME280;62772;48.646;8.906;2022-11-15T00:34:28;96064.38;;;5.41;100.00
4598;BME280;62772;48.646;8.906;2022-11-15T00:39:47;96063.41;;;5.32;100.00
4598;BME280;62772;48.646;8.906;2022-11-15T00:45:09;96052.41;;;5.44;100.00
4598;BME280;62772;48.646;8.906;2022-11-15T00:50:29;96049.75;;;5.20;100.00
4598;BME280;62772;48.646;8.906;2022-11-15T00:55:48;96049.75;;;5.20;100.00
4598;BME280;62772;48.646;8.906;2022-11-15T01:01:12;96047.75;;;5.60;100.00
4598;BME280;62772;48.646;8.906;2022-11-15T01:06:31;96047.09;;;5.44;100.00
4598;BME280;62772;48.646;8.906;2022-11-15T01:11:52;96045.88;;;5.12;100.00
4598;BME280;62772;48.646;8.906;2022-11-15T01:17:14;96035.13;;;5.03;100.00
4598;BME280;62772;48.646;8.906;2022-11-15T01:22:33;96027.47;;;5.02;100.00
4598;BME280;62772;48.646;8.906;2022-11-15T01:27:52;96018.34;;;5.13;100.00
4598;BME280;62772;48.646;8.906;2022-11-15T01:33:15;96015.53;;;5.29;100.00
4598;BME280;62772;48.646;8.906;2022-11-15T01:38:34;96015.31;;;5.25;100.00
4598;BME280;62772;48.646;8.906;2022-11-15T01:43:54;96012.66;;;5.44;100.00
4598;BME280;62772;48.646;8.906;2022-11-15T01:49:18;96010.97;;;5.53;100.00
4598;BME280;62772;48.646;8.906;2022-11-15T01:54:39;96014.31;;;5.40;100.00
4598;BME280;62772;48.646;8.906;2022-11-15T01:59:59;96009.88;;;5.35;100.00
4598;BME280;62772;48.646;8.906;2022-11-15T02:05:22;95996.84;;;5.39;100.00
4598;BME280;62772;48.646;8.906;2022-11-15T02:10:42;95998.25;;;5.31;100.00
4598;BME280;62772;48.646;8.906;2022-11-15T02:16:07;95981.81;;;5.34;100.00
4598;BME280;62772;48.646;8.906;2022-11-15T02:21:35;95978.00;;;4.73;100.00
4598;BME280;62772;48.646;8.906;2022-11-15T02:27:33;95983.19;;;4.83;100.00
4598;BME280;62772;48.646;8.906;2022-11-15T02:33:03;95975.81;;;5.04;100.00
4598;BME280;62772;48.646;8.906;2022-11-15T02:38:36;95966.44;;;5.12;100.00
4598;BME280;62772;48.646;8.906;2022-11-15T02:44:01;95965.78;;;5.25;100.00
4598;BME280;62772;48.646;8.906;2022-11-15T02:49:28;95969.59;;;4.66;100.00
4598;BME280;62772;48.646;8.906;2022-11-15T02:54:53;95964.50;;;4.45;100.00
4598;BME280;62772;48.646;8.906;2022-11-15T03:00:14;95949.28;;;4.61;100.00
4598;BME280;62772;48.646;8.906;2022-11-15T03:05:41;95933.72;;;4.84;100.00
4598;BME280;62772;48.646;8.906;2022-11-15T03:11:07;95933.19;;;4.58;100.00
4598;BME280;62772;48.646;8.906;2022-11-15T03:16:32;95931.34;;;4.58;100.00
4598;BME280;62772;48.646;8.906;2022-11-15T03:21:58;95922.66;;;4.77;100.00
4598;BME280;62772;48.646;8.906;2022-11-15T03:27:22;95935.88;;;5.01;100.00
4598;BME280;62772;48.646;8.906;2022-11-15T03:32:46;95921.81;;;4.57;100.00
4598;BME280;62772;48.646;8.906;2022-11-15T03:38:13;95930.13;;;4.45;100.00
4598;BME280;62772;48.646;8.906;2022-11-15T03:43:39;95918.56;;;4.65;100.00
4598;BME280;62772;48.646;8.906;2022-11-15T03:49:06;95918.97;;;4.24;100.00
4598;BME280;62772;48.646;8.906;2022-11-15T03:54:30;95910.00;;;4.73;100.00
4598;BME280;62772;48.646;8.906;2022-11-15T03:59:49;95901.22;;;4.54;100.00
4598;BME280;62772;48.646;8.906;2022-11-15T04:05:09;95904.00;;;4.68;100.00
4598;BME280;62772;48.646;8.906;2022-11-15T04:10:31;95908.53;;;4.62;100.00
4598;BME280;62772;48.646;8.906;2022-11-15T04:15:50;95911.13;;;4.67;100.00
4598;BME280;62772;48.646;8.906;2022-11-15T04:21:10;95900.72;;;4.76;100.00
4598;BME280;62772;48.646;8.906;2022-11-15T04:26:51;95906.28;;;4.75;100.00
4598;BME280;62772;48.646;8.906;2022-11-15T04:32:10;95898.16;;;4.71;100.00
4598;BME280;62772;48.646;8.906;2022-11-15T04:37:30;95888.28;;;4.77;100.00
4598;BME280;62772;48.646;8.906;2022-11-15T04:42:52;95901.19;;;5.02;100.00
4598;BME280;62772;48.646;8.906;2022-11-15T04:48:12;95895.47;;;4.95;100.00
4598;BME280;62772;48.646;8.906;2022-11-15T04:53:31;95887.22;;;4.78;100.00
4598;BME280;62772;48.646;8.906;2022-11-15T04:58:53;95875.88;;;4.96;100.00
4598;BME280;62772;48.646;8.906;2022-11-15T05:04:13;95870.63;;;4.91;100.00
4598;BME280;62772;48.646;8.906;2022-11-15T05:09:38;95878.84;;;4.89;100.00
4598;BME280;62772;48.646;8.906;2022-11-15T05:15:00;95868.75;;;4.72;100.00
4598;BME280;62772;48.646;8.906;2022-11-15T05:20:20;95871.63;;;4.76;100.00
4598;BME280;62772;48.646;8.906;2022-11-15T05:25:39;95864.63;;;4.85;100.00
4598;BME280;62772;48.646;8.906;2022-11-15T05:31:04;95863.53;;;4.43;100.00
4598;BME280;62772;48.646;8.906;2022-11-15T05:36:29;95858.22;;;4.67;100.00
4598;BME280;62772;48.646;8.906;2022-11-15T05:41:52;95854.50;;;4.68;100.00
4598;BME280;62772;48.646;8.906;2022-11-15T05:47:19;95856.66;;;4.66;100.00
4598;BME280;62772;48.646;8.906;2022-11-15T05:52:40;95843.66;;;4.22;100.00
4598;BME280;62772;48.646;8.906;2022-11-15T05:58:00;95845.47;;;3.68;100.00
4598;BME280;62772;48.646;8.906;2022-11-15T06:03:22;95840.19;;;3.33;100.00
4598;BME280;62772;48.646;8.906;2022-11-15T06:08:41;95832.31;;;3.92;100.00
4598;BME280;62772;48.646;8.906;2022-11-15T06:14:00;95834.22;;;3.86;100.00
4598;BME280;62772;48.646;8.906;2022-11-15T06:19:22;95844.06;;;3.80;100.00
4598;BME280;62772;48.646;8.906;2022-11-15T06:24:42;95850.47;;;3.35;100.00
4598;BME280;62772;48.646;8.906;2022-11-15T06:30:04;95856.22;;;2.97;100.00
4598;BME280;62772;48.646;8.906;2022-11-15T06:35:26;95856.56;;;3.30;100.00
4598;BME280;62772;48.646;8.906;2022-11-15T06:40:45;95857.28;;;3.75;100.00
4598;BME280;62772;48.646;8.906;2022-11-15T06:46:05;95854.25;;;3.92;100.00
4598;BME280;62772;48.646;8.906;2022-11-15T06:51:28;95867.63;;;4.30;100.00
4598;BME280;62772;48.646;8.906;2022-11-15T06:56:47;95869.00;;;4.23;100.00
4598;BME280;62772;48.646;8.906;2022-11-15T07:02:11;95871.34;;;3.71;100.00
4598;BME280;62772;48.646;8.906;2022-11-15T07:07:33;95868.34;;;3.43;100.00
4598;BME280;62772;48.646;8.906;2022-11-15T07:12:54;95865.91;;;3.86;100.00
4598;BME280;62772;48.646;8.906;2022-11-15T07:18:14;95864.25;;;3.95;100.00
4598;BME280;62772;48.646;8.906;2022-11-15T07:23:36;95859.91;;;4.34;100.00
4598;BME280;62772;48.646;8.906;2022-11-15T07:28:56;95859.13;;;4.33;100.00
4598;BME280;62772;48.646;8.906;2022-11-15T07:34:16;95842.31;;;4.24;100.00
4598;BME280;62772;48.646;8.906;2022-11-15T07:39:38;95842.31;;;4.48;100.00
4598;BME280;62772;48.646;8.906;2022-11-15T07:44:57;95846.00;;;4.71;100.00
4598;BME280;62772;48.646;8.906;2022-11-15T07:50:17;95848.53;;;4.82;100.00
4598;BME280;62772;48.646;8.906;2022-11-15T07:55:40;95846.63;;;4.87;100.00
4598;BME280;62772;48.646;8.906;2022-11-15T08:01:02;95843.22;;;5.06;100.00
4598;BME280;62772;48.646;8.906;2022-11-15T08:06:22;95844.06;;;5.01;100.00
4598;BME280;62772;48.646;8.906;2022-11-15T08:11:44;95851.94;;;5.06;100.00
4598;BME280;62772;48.646;8.906;2022-11-15T08:17:03;95846.63;;;5.25;100.00
4598;BME280;62772;48.646;8.906;2022-11-15T08:22:22;95845.25;;;5.47;100.00
4598;BME280;62772;48.646;8.906;2022-11-15T08:27:44;95832.94;;;5.56;100.00
4598;BME280;62772;48.646;8.906;2022-11-15T08:33:04;95836.63;;;6.07;100.00
4598;BME280;62772;48.646;8.906;2022-11-15T08:38:23;95830.75;;;6.52;100.00
4598;BME280;62772;48.646;8.906;2022-11-15T08:43:46;95816.47;;;7.03;100.00
4598;BME280;62772;48.646;8.906;2022-11-15T08:49:05;95811.50;;;7.24;100.00
4598;BME280;62772;48.646;8.906;2022-11-15T08:54:25;95798.34;;;7.42;100.00
4598;BME280;62772;48.646;8.906;2022-11-15T08:59:47;95803.81;;;7.45;100.00
4598;BME280;62772;48.646;8.906;2022-11-15T09:05:07;95813.69;;;7.45;100.00
4598;BME280;62772;48.646;8.906;2022-11-15T09:10:27;95805.22;;;7.66;100.00
4598;BME280;62772;48.646;8.906;2022-11-15T09:15:49;95800.75;;;7.52;100.00
4598;BME280;62772;48.646;8.906;2022-11-15T09:21:08;95806.34;;;7.96;100.00
4598;BME280;62772;48.646;8.906;2022-11-15T09:26:28;95802.06;;;7.86;100.00
4598;BME280;62772;48.646;8.906;2022-11-15T09:31:51;95800.56;;;8.03;100.00
4598;BME280;62772;48.646;8.906;2022-11-15T09:37:11;95797.91;;;8.03;100.00
4598;BME280;62772;48.646;8.906;2022-11-15T09:42:43;95795.94;;;8.17;100.00
4598;BME280;62772;48.646;8.906;2022-11-15T09:54:11;95785.94;;;8.54;100.00
4598;BME280;62772;48.646;8.906;2022-11-15T09:59:25;95787.81;;;8.53;100.00
4598;BME280;62772;48.646;8.906;2022-11-15T10:04:28;95777.47;;;8.43;100.00
4598;BME280;62772;48.646;8.906;2022-11-15T10:09:35;95777.63;;;8.56;100.00
4598;BME280;62772;48.646;8.906;2022-11-15T10:14:39;95763.59;;;8.73;100.00
4598;BME280;62772;48.646;8.906;2022-11-15T10:19:51;95760.47;;;8.79;100.00
4598;BME280;62772;48.646;8.906;2022-11-15T10:25:11;95757.97;;;8.83;100.00
4598;BME280;62772;48.646;8.906;2022-11-15T10:30:16;95753.75;;;8.99;100.00
4598;BME280;62772;48.646;8.906;2022-11-15T10:35:23;95750.47;;;9.02;100.00
4598;BME280;62772;48.646;8.906;2022-11-15T10:40:27;95734.31;;;9.07;100.00
4598;BME280;62772;48.646;8.906;2022-11-15T10:45:29;95735.88;;;9.00;100.00
4598;BME280;62772;48.646;8.906;2022-11-15T10:50:32;95731.81;;;9.11;100.00
4598;BME280;62772;48.646;8.906;2022-11-15T10:55:35;95733.38;;;9.30;100.00
4598;BME280;62772;48.646;8.906;2022-11-15T11:00:37;95731.00;;;9.37;100.00
4598;BME280;62772;48.646;8.906;2022-11-15T11:05:40;95713.44;;;9.44;100.00
4598;BME280;62772;48.646;8.906;2022-11-15T11:10:52;95717.03;;;9.40;100.00
4598;BME280;62772;48.646;8.906;2022-11-15T11:15:56;95717.03;;;9.40;100.00
4598;BME280;62772;48.646;8.906;2022-11-15T11:21:04;95715.91;;;9.58;100.00
4598;BME280;62772;48.646;8.906;2022-11-15T11:26:24;95701.03;;;9.49;100.00
4598;BME280;62772;48.646;8.906;2022-11-15T11:31:31;95693.50;;;9.51;100.00
4598;BME280;62772;48.646;8.906;2022-11-15T11:36:40;95686.75;;;9.53;100.00
4598;BME280;62772;48.646;8.906;2022-11-15T11:42:00;95679.94;;;9.73;100.00
4598;BME280;62772;48.646;8.906;2022-11-15T11:47:08;95672.19;;;9.89;100.00
4598;BME280;62772;48.646;8.906;2022-11-15T11:52:13;95664.16;;;9.98;100.00
4598;BME280;62772;48.646;8.906;2022-11-15T11:57:25;95659.16;;;9.96;100.00
4598;BME280;62772;48.646;8.906;2022-11-15T12:02:31;95647.28;;;10.15;100.00
4598;BME280;62772;48.646;8.906;2022-11-15T12:07:35;95653.28;;;10.12;100.00
4598;BME280;62772;48.646;8.906;2022-11-15T12:12:50;95643.38;;;10.12;100.00
4598;BME280;62772;48.646;8.906;2022-11-15T12:17:54;95650.75;;;10.07;100.00
4598;BME280;62772;48.646;8.906;2022-11-15T12:22:59;95630.63;;;10.18;100.00
4598;BME280;62772;48.646;8.906;2022-11-15T12:28:11;95635.03;;;10.14;100.00
4598;BME280;62772;48.646;8.906;2022-11-15T12:33:30;95638.50;;;10.14;100.00
4598;BME280;62772;48.646;8.906;2022-11-15T12:38:51;95630.56;;;10.27;100.00
4598;BME280;62772;48.646;8.906;2022-11-15T12:43:56;95626.88;;;10.40;100.00
4598;BME280;62772;48.646;8.906;2022-11-15T12:48:59;95616.38;;;10.44;100.00
4598;BME280;62772;48.646;8.906;2022-11-15T12:59:52;95607.25;;;10.66;100.00
4598;BME280;62772;48.646;8.906;2022-11-15T13:10:36;95590.88;;;10.67;100.00
4598;BME280;62772;48.646;8.906;2022-11-15T13:15:55;95586.72;;;10.79;100.00
4598;BME280;62772;48.646;8.906;2022-11-15T13:20:56;95570.59;;;10.87;100.00
4598;BME280;62772;48.646;8.906;2022-11-15T13:26:14;95564.34;;;10.83;100.00
4598;BME280;62772;48.646;8.906;2022-11-15T13:31:35;95554.50;;;10.75;100.00
4598;BME280;62772;48.646;8.906;2022-11-15T13:36:37;95546.66;;;10.79;100.00
4598;BME280;62772;48.646;8.906;2022-11-15T13:41:47;95535.97;;;10.79;100.00
4598;BME280;62772;48.646;8.906;2022-11-15T13:46:48;95545.28;;;10.73;100.00
4598;BME280;62772;48.646;8.906;2022-11-15T13:51:50;95525.13;;;10.63;100.00
4598;BME280;62772;48.646;8.906;2022-11-15T13:56:59;95514.84;;;10.52;100.00
4598;BME280;62772;48.646;8.906;2022-11-15T14:02:11;95499.78;;;10.69;100.00
4598;BME280;62772;48.646;8.906;2022-11-15T14:07:16;95503.09;;;10.78;100.00
4598;BME280;62772;48.646;8.906;2022-11-15T14:12:29;95490.25;;;10.59;100.00
4598;BME280;62772;48.646;8.906;2022-11-15T14:17:36;95491.22;;;10.76;100.00
4598;BME280;62772;48.646;8.906;2022-11-15T14:22:51;95490.66;;;10.82;100.00
4598;BME280;62772;48.646;8.906;2022-11-15T14:28:10;95478.88;;;10.83;100.00
4598;BME280;62772;48.646;8.906;2022-11-15T14:33:23;95463.78;;;10.54;100.00
4598;BME280;62772;48.646;8.906;2022-11-15T14:38:24;95461.22;;;10.45;100.00
4598;BME280;62772;48.646;8.906;2022-11-15T14:43:28;95448.97;;;10.44;100.00
4598;BME280;62772;48.646;8.906;2022-11-15T14:48:29;95442.28;;;10.38;100.00
4598;BME280;62772;48.646;8.906;2022-11-15T14:53:30;95448.41;;;10.51;100.00
4598;BME280;62772;48.646;8.906;2022-11-15T14:58:33;95454.53;;;10.39;100.00
4598;BME280;62772;48.646;8.906;2022-11-15T15:03:34;95442.28;;;10.17;100.00
4598;BME280;62772;48.646;8.906;2022-11-15T15:08:35;95443.09;;;10.30;100.00
4598;BME280;62772;48.646;8.906;2022-11-15T15:13:38;95433.09;;;10.27;100.00
4598;BME280;62772;48.646;8.906;2022-11-15T15:18:39;95426.56;;;10.03;100.00
4598;BME280;62772;48.646;8.906;2022-11-15T15:23:39;95416.53;;;10.00;100.00
4598;BME280;62772;48.646;8.906;2022-11-15T15:28:43;95413.75;;;9.96;100.00
4598;BME280;62772;48.646;8.906;2022-11-15T15:33:44;95411.41;;;9.95;100.00
4598;BME280;62772;48.646;8.906;2022-11-15T15:38:45;95405.63;;;9.72;100.00
4598;BME280;62772;48.646;8.906;2022-11-15T15:43:49;95404.34;;;9.57;100.00
4598;BME280;62772;48.646;8.906;2022-11-15T15:48:50;95393.81;;;9.60;100.00
4598;BME280;62772;48.646;8.906;2022-11-15T15:53:51;95390.50;;;9.63;100.00
4598;BME280;62772;48.646;8.906;2022-11-15T15:58:55;95374.09;;;9.53;100.00
4598;BME280;62772;48.646;8.906;2022-11-15T16:03:56;95366.63;;;9.46;100.00
4598;BME280;62772;48.646;8.906;2022-11-15T16:08:57;95357.91;;;9.37;100.00
4598;BME280;62772;48.646;8.906;2022-11-15T16:14:00;95347.44;;;9.53;100.00
4598;BME280;62772;48.646;8.906;2022-11-15T16:19:01;95348.72;;;9.13;100.00
4598;BME280;62772;48.646;8.906;2022-11-15T16:24:02;95337.13;;;9.09;100.00
4598;BME280;62772;48.646;8.906;2022-11-15T16:29:05;95331.16;;;9.12;100.00
4598;BME280;62772;48.646;8.906;2022-11-15T16:34:07;95325.06;;;9.12;100.00
4598;BME280;62772;48.646;8.906;2022-11-15T16:39:11;95324.34;;;9.23;100.00
4598;BME280;62772;48.646;8.906;2022-11-15T16:44:16;95335.00;;;9.23;100.00
4598;BME280;62772;48.646;8.906;2022-11-15T16:49:18;95330.44;;;9.03;100.00
4598;BME280;62772;48.646;8.906;2022-11-15T16:54:19;95325.56;;;9.26;100.00
4598;BME280;62772;48.646;8.906;2022-11-15T16:59:22;95320.56;;;9.46;100.00
4598;BME280;62772;48.646;8.906;2022-11-15T17:04:23;95312.47;;;9.88;100.00
4598;BME280;62772;48.646;8.906;2022-11-15T17:09:24;95317.28;;;9.94;100.00
4598;BME280;62772;48.646;8.906;2022-11-15T17:14:27;95311.41;;;9.34;100.00
4598;BME280;62772;48.646;8.906;2022-11-15T17:19:28;95300.59;;;8.88;100.00
4598;BME280;62772;48.646;8.906;2022-11-15T17:24:29;95299.00;;;8.96;100.00
4598;BME280;62772;48.646;8.906;2022-11-15T17:29:32;95288.66;;;8.74;100.00
4598;BME280;62772;48.646;8.906;2022-11-15T17:34:33;95286.91;;;8.99;100.00
4598;BME280;62772;48.646;8.906;2022-11-15T17:39:33;95284.31;;;8.60;100.00
4598;BME280;62772;48.646;8.906;2022-11-15T17:44:37;95295.03;;;8.43;100.00
4598;BME280;62772;48.646;8.906;2022-11-15T17:49:37;95291.97;;;8.32;100.00
4598;BME280;62772;48.646;8.906;2022-11-15T17:54:40;95291.59;;;8.42;100.00
4598;BME280;62772;48.646;8.906;2022-11-15T17:59:43;95285.81;;;8.40;100.00
4598;BME280;62772;48.646;8.906;2022-11-15T18:04:44;95285.78;;;8.49;100.00
4598;BME280;62772;48.646;8.906;2022-11-15T18:09:45;95277.59;;;8.63;100.00
4598;BME280;62772;48.646;8.906;2022-11-15T18:14:48;95276.97;;;8.57;100.00
4598;BME280;62772;48.646;8.906;2022-11-15T18:19:49;95277.81;;;9.00;100.00
4598;BME280;62772;48.646;8.906;2022-11-15T18:24:49;95278.38;;;9.26;100.00
4598;BME280;62772;48.646;8.906;2022-11-15T18:29:53;95279.75;;;8.90;100.00
4598;BME280;62772;48.646;8.906;2022-11-15T18:34:53;95276.19;;;9.07;100.00
4598;BME280;62772;48.646;8.906;2022-11-15T18:39:54;95273.00;;;8.93;100.00
4598;BME280;62772;48.646;8.906;2022-11-15T18:44:57;95260.72;;;9.22;100.00
4598;BME280;62772;48.646;8.906;2022-11-15T18:49:59;95257.34;;;9.13;100.00
4598;BME280;62772;48.646;8.906;2022-11-15T18:54:59;95239.81;;;9.12;100.00
4598;BME280;62772;48.646;8.906;2022-11-15T19:00:03;95235.94;;;9.42;100.00
4598;BME280;62772;48.646;8.906;2022-11-15T19:05:05;95233.22;;;9.30;100.00
4598;BME280;62772;48.646;8.906;2022-11-15T19:10:07;95227.72;;;9.48;100.00
4598;BME280;62772;48.646;8.906;2022-11-15T19:15:13;95214.56;;;9.30;100.00
4598;BME280;62772;48.646;8.906;2022-11-15T19:20:14;95215.66;;;8.96;100.00
4598;BME280;62772;48.646;8.906;2022-11-15T19:25:14;95200.53;;;8.87;100.00
4598;BME280;62772;48.646;8.906;2022-11-15T19:30:20;95200.06;;;8.85;100.00
4598;BME280;62772;48.646;8.906;2022-11-15T19:35:21;95193.19;;;8.63;100.00
4598;BME280;62772;48.646;8.906;2022-11-15T19:40:22;95194.66;;;8.22;100.00
4598;BME280;62772;48.646;8.906;2022-11-15T19:45:25;95191.50;;;7.99;100.00
4598;BME280;62772;48.646;8.906;2022-11-15T19:50:26;95196.44;;;8.48;100.00
4598;BME280;62772;48.646;8.906;2022-11-15T19:55:27;95193.72;;;7.97;100.00
4598;BME280;62772;48.646;8.906;2022-11-15T20:00:30;95198.25;;;7.96;100.00
4598;BME280;62772;48.646;8.906;2022-11-15T20:05:31;95194.94;;;7.99;100.00
4598;BME280;62772;48.646;8.906;2022-11-15T20:10:32;95193.03;;;8.39;100.00
4598;BME280;62772;48.646;8.906;2022-11-15T20:15:35;95195.03;;;8.12;100.00
4598;BME280;62772;48.646;8.906;2022-11-15T20:20:36;95182.19;;;8.14;100.00
4598;BME280;62772;48.646;8.906;2022-11-15T20:25:37;95166.34;;;7.96;100.00
4598;BME280;62772;48.646;8.906;2022-11-15T20:30:41;95165.56;;;8.26;100.00
4598;BME280;62772;48.646;8.906;2022-11-15T20:35:42;95158.47;;;8.30;100.00
4598;BME280;62772;48.646;8.906;2022-11-15T20:40:44;95149.50;;;8.64;100.00
4598;BME280;62772;48.646;8.906;2022-11-15T20:45:48;95154.50;;;8.66;100.00
4598;BME280;62772;48.646;8.906;2022-11-15T20:50:49;95140.53;;;8.90;100.00
4598;BME280;62772;48.646;8.906;2022-11-15T20:55:50;95141.47;;;8.22;100.00
4598;BME280;62772;48.646;8.906;2022-11-15T21:00:54;95146.09;;;7.83;100.00
4598;BME280;62772;48.646;8.906;2022-11-15T21:05:55;95126.50;;;8.39;100.00
4598;BME280;62772;48.646;8.906;2022-11-15T21:10:56;95114.09;;;8.43;100.00
4598;BME280;62772;48.646;8.906;2022-11-15T21:16:18;95105.00;;;8.02;100.00
4598;BME280;62772;48.646;8.906;2022-11-15T21:21:19;95112.59;;;8.12;100.00
4598;BME280;62772;48.646;8.906;2022-11-15T21:26:19;95115.22;;;8.42;100.00
4598;BME280;62772;48.646;8.906;2022-11-15T21:31:23;95118.59;;;8.00;100.00
4598;BME280;62772;48.646;8.906;2022-11-15T21:36:24;95105.59;;;8.28;100.00
4598;BME280;62772;48.646;8.906;2022-11-15T21:41:24;95106.25;;;8.25;100.00
4598;BME280;62772;48.646;8.906;2022-11-15T21:46:28;95104.84;;;8.28;100.00
4598;BME280;62772;48.646;8.906;2022-11-15T21:51:29;95099.19;;;8.29;100.00
4598;BME280;62772;48.646;8.906;2022-11-15T21:56:31;95094.97;;;8.49;100.00
4598;BME280;62772;48.646;8.906;2022-11-15T22:01:37;95085.97;;;8.63;100.00
4598;BME280;62772;48.646;8.906;2022-11-15T22:06:56;95081.72;;;8.62;100.00
4598;BME280;62772;48.646;8.906;2022-11-15T22:11:57;95082.84;;;8.61;100.00
4598;BME280;62772;48.646;8.906;2022-11-15T22:17:00;95080.84;;;8.58;100.00
4598;BME280;62772;48.646;8.906;2022-11-15T22:22:01;95078.50;;;8.56;100.00
4598;BME280;62772;48.646;8.906;2022-11-15T22:27:04;95075.53;;;8.58;100.00
4598;BME280;62772;48.646;8.906;2022-11-15T22:32:08;95080.06;;;8.57;100.00
4598;BME280;62772;48.646;8.906;2022-11-15T22:37:09;95091.00;;;8.43;100.00
4598;BME280;62772;48.646;8.906;2022-11-15T22:42:09;95093.31;;;8.45;100.00
4598;BME280;62772;48.646;8.906;2022-11-15T22:47:13;95088.03;;;8.36;100.00
4598;BME280;62772;48.646;8.906;2022-11-15T22:52:14;95080.25;;;8.10;100.00
4598;BME280;62772;48.646;8.906;2022-11-15T22:57:14;95081.81;;;8.32;100.00
4598;BME280;62772;48.646;8.906;2022-11-15T23:02:18;95083.56;;;8.49;100.00
4598;BME280;62772;48.646;8.906;2022-11-15T23:07:19;95077.84;;;8.59;100.00
4598;BME280;62772;48.646;8.906;2022-11-15T23:12:20;95072.72;;;8.54;100.00
4598;BME280;62772;48.646;8.906;2022-11-15T23:17:42;95060.66;;;8.14;100.00
4598;BME280;62772;48.646;8.906;2022-11-15T23:22:43;95053.19;;;8.50;100.00
4598;BME280;62772;48.646;8.906;2022-11-15T23:27:46;95054.09;;;8.33;100.00
4598;BME280;62772;48.646;8.906;2022-11-15T23:32:50;95058.25;;;8.22;100.00
4598;BME280;62772;48.646;8.906;2022-11-15T23:38:09;95054.69;;;8.17;100.00
4598;BME280;62772;48.646;8.906;2022-11-15T23:43:10;95051.50;;;7.82;100.00
4598;BME280;62772;48.646;8.906;2022-11-15T23:48:13;95061.63;;;8.10;100.00
4598;BME280;62772;48.646;8.906;2022-11-15T23:53:14;95063.31;;;8.35;100.00
4598;BME280;62772;48.646;8.906;2022-11-15T23:58:15;95052.88;;;8.51;100.00
